createdAt,value
2022-12-09T00:00:44.032Z,3.75
2022-12-09T00:03:10.789Z,3.67
2022-12-09T00:05:40.589Z,3.71
2022-12-09T00:08:07.435Z,3.72
2022-12-09T00:10:33.988Z,3.68
2022-12-09T00:13:00.920Z,3.71
2022-12-09T00:15:27.553Z,3.77
2022-12-09T00:17:54.811Z,3.80
2022-12-09T00:20:21.401Z,3.77
2022-12-09T00:22:47.885Z,3.79
2022-12-09T00:25:14.766Z,3.80
2022-12-09T00:27:41.241Z,3.82
2022-12-09T00:30:08.439Z,3.82
2022-12-09T00:32:35.642Z,3.83
2022-12-09T00:35:02.407Z,3.85
2022-12-09T00:37:29.186Z,3.88
2022-12-09T00:39:55.888Z,3.90
2022-12-09T00:42:23.081Z,3.87
2022-12-09T00:44:49.782Z,3.88
2022-12-09T00:47:16.465Z,3.88
2022-12-09T00:49:43.757Z,3.90
2022-12-09T00:52:10.309Z,3.93
2022-12-09T00:54:36.891Z,3.94
2022-12-09T00:57:03.556Z,3.92
2022-12-09T00:59:30.973Z,3.90
2022-12-09T01:01:57.902Z,3.90
2022-12-09T01:04:25.447Z,3.86
2022-12-09T01:06:52.882Z,3.85
2022-12-09T01:09:19.657Z,3.87
2022-12-09T01:11:46.517Z,3.87
2022-12-09T01:14:13.287Z,3.88
2022-12-09T01:16:40.150Z,3.86
2022-12-09T01:19:10.978Z,3.86
2022-12-09T01:21:37.471Z,3.84
2022-12-09T01:24:09.490Z,3.81
2022-12-09T01:26:36.958Z,3.81
2022-12-09T01:29:04.819Z,3.77
2022-12-09T01:31:31.434Z,3.78
2022-12-09T01:33:58.083Z,3.70
2022-12-09T01:36:27.910Z,3.70
2022-12-09T01:38:54.963Z,3.73
2022-12-09T01:41:22.720Z,3.70
2022-12-09T01:44:09.267Z,3.71
2022-12-09T01:46:35.920Z,3.71
2022-12-09T01:49:02.836Z,3.65
2022-12-09T01:51:30.566Z,3.64
2022-12-09T01:53:57.686Z,3.65
2022-12-09T01:56:30.337Z,3.68
2022-12-09T01:59:02.541Z,3.70
2022-12-09T02:01:29.473Z,3.71
2022-12-09T02:03:56.221Z,3.58
2022-12-09T02:06:22.851Z,3.45
2022-12-09T02:08:50.725Z,3.53
2022-12-09T02:11:21.203Z,3.57
2022-12-09T02:14:01.021Z,3.48
2022-12-09T02:16:30.268Z,3.50
2022-12-09T02:19:02.746Z,3.45
2022-12-09T02:21:40.534Z,3.28
2022-12-09T02:24:42.520Z,3.26
2022-12-09T02:27:18.033Z,3.20
2022-12-09T02:29:48.389Z,3.30
2022-12-09T02:32:51.817Z,3.37
2022-12-09T02:35:47.714Z,3.39
2022-12-09T02:38:22.779Z,3.31
2022-12-09T02:40:52.259Z,3.21
2022-12-09T02:43:24.318Z,3.29
2022-12-09T02:45:52.924Z,3.36
2022-12-09T02:48:26.421Z,3.30
2022-12-09T02:50:54.632Z,3.31
2022-12-09T02:53:23.513Z,3.39
2022-12-09T02:55:52.823Z,3.41
2022-12-09T02:58:19.501Z,3.44
2022-12-09T03:00:46.220Z,3.40
2022-12-09T03:03:17.691Z,3.47
2022-12-09T03:06:01.779Z,3.52
2022-12-09T03:08:57.481Z,3.54
2022-12-09T03:11:25.200Z,3.54
2022-12-09T03:14:13.850Z,3.54
2022-12-09T03:17:28.321Z,3.59
2022-12-09T03:19:58.913Z,3.38
2022-12-09T03:22:29.437Z,3.35
2022-12-09T03:25:33.778Z,3.42
2022-12-09T03:28:06.154Z,3.47
2022-12-09T03:30:37.357Z,3.35
2022-12-09T03:33:05.268Z,3.36
2022-12-09T03:35:36.900Z,3.42
2022-12-09T03:38:07.300Z,3.44
2022-12-09T03:40:35.373Z,3.42
2022-12-09T03:43:08.692Z,3.45
2022-12-09T03:45:35.449Z,3.41
2022-12-09T03:48:02.949Z,3.46
2022-12-09T03:50:35.904Z,3.50
2022-12-09T03:53:18.654Z,3.45
2022-12-09T03:55:57.017Z,3.49
2022-12-09T03:58:24.827Z,3.50
2022-12-09T04:00:52.000Z,3.53
2022-12-09T04:03:19.045Z,3.54
2022-12-09T04:05:45.768Z,3.54
2022-12-09T04:08:12.409Z,3.53
2022-12-09T04:10:39.510Z,3.51
2022-12-09T04:13:06.027Z,3.50
2022-12-09T04:15:32.891Z,3.43
2022-12-09T04:17:59.828Z,3.46
2022-12-09T04:20:26.498Z,3.49
2022-12-09T04:22:53.071Z,3.48
2022-12-09T04:25:20.353Z,3.44
2022-12-09T04:27:46.856Z,3.37
2022-12-09T04:30:13.853Z,3.38
2022-12-09T04:32:41.195Z,3.37
2022-12-09T04:35:08.266Z,3.38
2022-12-09T04:37:34.941Z,3.33
2022-12-09T04:40:01.687Z,3.36
2022-12-09T04:42:29.756Z,3.33
2022-12-09T04:44:56.609Z,3.33
2022-12-09T04:47:23.317Z,3.35
2022-12-09T04:49:50.294Z,3.36
2022-12-09T04:52:18.056Z,3.33
2022-12-09T04:54:45.007Z,3.31
2022-12-09T04:57:12.431Z,3.33
2022-12-09T04:59:39.004Z,3.38
2022-12-09T05:02:05.740Z,3.39
2022-12-09T05:04:32.896Z,3.44
2022-12-09T05:06:59.647Z,3.47
2022-12-09T05:09:26.690Z,3.48
2022-12-09T05:11:54.279Z,3.52
2022-12-09T05:14:21.049Z,3.51
2022-12-09T05:16:48.321Z,3.44
2022-12-09T05:19:15.863Z,3.45
2022-12-09T05:21:44.093Z,3.48
2022-12-09T05:24:10.797Z,3.50
2022-12-09T05:26:37.388Z,3.51
2022-12-09T05:29:04.159Z,3.47
2022-12-09T05:31:31.077Z,3.44
2022-12-09T05:33:58.541Z,3.45
2022-12-09T05:36:27.809Z,3.47
2022-12-09T05:38:55.902Z,3.45
2022-12-09T05:41:24.655Z,3.45
2022-12-09T05:43:52.139Z,3.48
2022-12-09T05:46:19.814Z,3.42
2022-12-09T05:48:46.854Z,3.44
2022-12-09T05:51:29.267Z,3.43
2022-12-09T05:54:00.356Z,3.46
2022-12-09T05:56:27.534Z,3.45
2022-12-09T05:58:55.634Z,3.37
2022-12-09T06:01:23.569Z,3.41
2022-12-09T06:03:51.356Z,3.45
2022-12-09T06:06:20.668Z,3.34
2022-12-09T06:08:47.991Z,3.41
2022-12-09T06:11:21.169Z,3.48
2022-12-09T06:13:49.078Z,3.48
2022-12-09T06:16:19.436Z,3.51
2022-12-09T06:18:47.553Z,3.52
2022-12-09T06:21:15.766Z,3.57
2022-12-09T06:23:43.567Z,3.51
2022-12-09T06:26:30.659Z,3.53
2022-12-09T06:28:57.979Z,3.56
2022-12-09T06:31:25.898Z,3.56
2022-12-09T06:33:55.254Z,3.56
2022-12-09T06:36:22.718Z,3.55
2022-12-09T06:38:49.567Z,3.57
2022-12-09T06:41:16.447Z,3.60
2022-12-09T06:43:44.016Z,3.60
2022-12-09T06:46:12.969Z,3.62
2022-12-09T06:48:40.391Z,3.59
2022-12-09T06:51:08.213Z,3.56
2022-12-09T06:53:34.896Z,3.57
2022-12-09T06:56:09.493Z,3.57
2022-12-09T06:58:39.195Z,3.59
2022-12-09T07:01:08.865Z,3.59
2022-12-09T07:03:36.441Z,3.60
2022-12-09T07:06:03.550Z,3.59
2022-12-09T07:08:30.778Z,3.56
2022-12-09T07:10:58.213Z,3.53
2022-12-09T07:13:25.338Z,3.51
2022-12-09T07:15:52.283Z,3.46
2022-12-09T07:18:19.203Z,3.43
2022-12-09T07:20:46.475Z,3.41
2022-12-09T07:23:13.865Z,3.37
2022-12-09T07:25:40.707Z,3.31
2022-12-09T07:28:07.350Z,3.29
2022-12-09T07:30:36.798Z,3.25
2022-12-09T07:33:03.393Z,3.20
2022-12-09T07:35:30.817Z,3.19
2022-12-09T07:37:57.938Z,3.19
2022-12-09T07:40:24.628Z,3.19
2022-12-09T07:42:56.138Z,3.19
2022-12-09T07:45:25.601Z,3.18
2022-12-09T07:47:52.259Z,3.16
2022-12-09T07:50:19.110Z,3.14
2022-12-09T07:52:46.339Z,3.13
2022-12-09T07:55:13.331Z,3.14
2022-12-09T07:57:40.704Z,3.14
2022-12-09T08:00:08.078Z,3.13
2022-12-09T08:02:34.904Z,3.13
2022-12-09T08:05:03.080Z,3.16
2022-12-09T08:07:30.429Z,3.19
2022-12-09T08:09:57.992Z,3.24
2022-12-09T08:12:24.876Z,3.30
2022-12-09T08:14:51.852Z,3.38
2022-12-09T08:17:18.643Z,3.42
2022-12-09T08:19:46.047Z,3.42
2022-12-09T08:22:13.124Z,3.44
2022-12-09T08:24:40.861Z,3.40
2022-12-09T08:27:07.630Z,3.24
2022-12-09T08:29:34.420Z,3.27
2022-12-09T08:32:01.470Z,3.24
2022-12-09T08:34:28.506Z,3.27
2022-12-09T08:37:01.609Z,3.30
2022-12-09T08:39:28.997Z,3.32
2022-12-09T08:41:55.760Z,3.33
2022-12-09T08:44:23.474Z,3.31
2022-12-09T08:46:52.016Z,3.35
2022-12-09T08:49:22.117Z,3.39
2022-12-09T08:51:50.914Z,3.40
2022-12-09T08:54:18.269Z,3.40
2022-12-09T08:56:49.503Z,3.36
2022-12-09T08:59:16.998Z,3.35
2022-12-09T09:01:43.965Z,3.34
2022-12-09T09:04:13.561Z,3.37
2022-12-09T09:06:42.500Z,3.41
2022-12-09T09:09:10.891Z,3.42
2022-12-09T09:11:38.527Z,3.47
2022-12-09T09:14:06.855Z,3.52
2022-12-09T09:16:34.655Z,3.54
2022-12-09T09:19:03.981Z,3.58
2022-12-09T09:21:30.714Z,3.61
2022-12-09T09:23:58.761Z,3.65
2022-12-09T09:26:28.183Z,3.64
2022-12-09T09:28:56.444Z,3.68
2022-12-09T09:31:24.911Z,3.70
2022-12-09T09:33:52.863Z,3.71
2022-12-09T09:36:23.027Z,3.74
2022-12-09T09:38:52.454Z,3.74
2022-12-09T09:41:27.219Z,3.77
2022-12-09T09:43:55.524Z,3.80
2022-12-09T09:46:38.044Z,3.83
2022-12-09T09:49:10.680Z,3.84
2022-12-09T09:51:38.592Z,3.83
2022-12-09T09:54:08.663Z,3.86
2022-12-09T09:56:51.788Z,3.89
2022-12-09T09:59:35.010Z,3.97
2022-12-09T10:02:11.596Z,3.94
2022-12-09T10:05:24.114Z,3.91
2022-12-09T10:08:04.001Z,3.96
2022-12-09T10:10:33.900Z,3.98
2022-12-09T10:13:19.876Z,4.03
2022-12-09T10:16:15.818Z,4.04
2022-12-09T10:19:12.349Z,4.10
2022-12-09T10:21:43.635Z,4.12
2022-12-09T10:24:22.357Z,4.17
2022-12-09T10:27:21.136Z,4.19
2022-12-09T10:29:57.031Z,4.12
2022-12-09T10:32:32.568Z,4.09
2022-12-09T10:35:00.707Z,4.14
2022-12-09T10:37:35.351Z,4.16
2022-12-09T10:40:17.673Z,4.18
2022-12-09T10:43:05.551Z,4.21
2022-12-09T10:46:07.817Z,4.25
2022-12-09T10:48:42.499Z,4.25
2022-12-09T10:51:23.964Z,4.27
2022-12-09T10:54:11.671Z,4.26
2022-12-09T10:57:02.136Z,4.28
2022-12-09T10:59:30.672Z,4.28
2022-12-09T11:02:22.961Z,4.27
2022-12-09T11:04:50.197Z,4.27
2022-12-09T11:07:26.124Z,4.31
2022-12-09T11:09:56.384Z,4.31
2022-12-09T11:12:34.794Z,4.23
2022-12-09T11:15:29.652Z,4.29
2022-12-09T11:18:06.078Z,4.23
2022-12-09T11:20:35.562Z,4.25
2022-12-09T11:23:12.270Z,4.27
2022-12-09T11:25:53.318Z,4.31
2022-12-09T11:28:31.165Z,4.34
2022-12-09T11:33:53.449Z,4.32
2022-12-09T11:36:43.963Z,4.34
2022-12-09T11:39:28.070Z,4.36
2022-12-09T11:42:18.130Z,4.42
2022-12-09T11:44:56.830Z,4.46
2022-12-09T11:50:36.914Z,4.48
2022-12-09T11:53:12.538Z,4.55
2022-12-09T11:55:46.596Z,4.30
2022-12-09T11:58:31.117Z,4.40
2022-12-09T12:01:09.425Z,4.46
2022-12-09T12:03:42.220Z,4.52
2022-12-09T12:06:22.308Z,4.55
2022-12-09T12:08:54.603Z,4.56
2022-12-09T12:11:27.873Z,4.51
2022-12-09T12:14:13.904Z,4.49
2022-12-09T12:16:57.656Z,4.49
2022-12-09T12:19:40.309Z,4.50
2022-12-09T12:22:18.927Z,4.52
2022-12-09T12:24:54.628Z,4.53
2022-12-09T12:27:46.795Z,4.52
2022-12-09T12:30:16.702Z,4.46
2022-12-09T12:33:28.675Z,4.48
2022-12-09T12:35:41.661Z,4.47
2022-12-09T12:38:14.189Z,4.47
2022-12-09T12:40:54.900Z,4.41
2022-12-09T12:43:53.463Z,4.43
2022-12-09T12:46:22.712Z,4.45
2022-12-09T12:48:53.087Z,4.46
2022-12-09T12:51:56.879Z,4.50
2022-12-09T12:54:25.987Z,4.51
2022-12-09T12:57:36.665Z,4.43
2022-12-09T13:00:25.602Z,4.48
2022-12-09T13:03:24.794Z,4.43
2022-12-09T13:05:53.819Z,4.42
2022-12-09T13:08:27.406Z,4.47
2022-12-09T13:10:57.194Z,4.48
2022-12-09T13:13:38.907Z,4.51
2022-12-09T13:16:18.430Z,4.46
2022-12-09T13:18:45.441Z,4.50
2022-12-09T13:21:12.881Z,4.45
2022-12-09T13:23:45.567Z,4.42
2022-12-09T13:26:31.079Z,4.40
2022-12-09T13:29:22.041Z,4.41
2022-12-09T13:31:58.791Z,4.37
2022-12-09T13:34:41.802Z,4.40
2022-12-09T13:37:31.242Z,4.37
2022-12-09T13:39:59.062Z,4.38
2022-12-09T13:42:46.933Z,4.28
2022-12-09T13:45:15.952Z,4.24
2022-12-09T13:47:42.453Z,4.17
2022-12-09T13:50:23.825Z,4.15
2022-12-09T13:52:56.696Z,4.09
2022-12-09T13:55:35.433Z,4.02
2022-12-09T13:58:04.902Z,3.94
2022-12-09T14:00:31.959Z,3.91
2022-12-09T14:03:19.412Z,3.85
2022-12-09T14:05:47.693Z,3.79
2022-12-09T14:08:23.588Z,3.81
2022-12-09T14:10:54.109Z,3.73
2022-12-09T14:13:28.343Z,3.75
2022-12-09T14:16:30.396Z,3.72
2022-12-09T14:18:58.117Z,3.67
2022-12-09T14:21:33.644Z,3.67
2022-12-09T14:24:09.450Z,3.69
2022-12-09T14:26:37.449Z,3.69
2022-12-09T14:29:06.441Z,3.69
2022-12-09T14:31:48.639Z,3.69
2022-12-09T14:34:37.674Z,3.66
2022-12-09T14:37:10.267Z,3.67
2022-12-09T14:40:15.799Z,3.70
2022-12-09T14:43:03.839Z,3.66
2022-12-09T14:45:49.966Z,3.66
2022-12-09T14:48:21.337Z,3.65
2022-12-09T14:50:47.893Z,3.63
2022-12-09T14:53:23.856Z,3.62
2022-12-09T14:55:51.226Z,3.60
2022-12-09T14:58:21.023Z,3.61
2022-12-09T15:00:58.148Z,3.62
2022-12-09T15:03:37.026Z,3.61
2022-12-09T15:06:17.287Z,3.61
2022-12-09T15:08:43.800Z,3.60
2022-12-09T15:11:18.568Z,3.60
2022-12-09T15:13:48.046Z,3.60
2022-12-09T15:16:18.156Z,3.59
2022-12-09T15:18:45.677Z,3.59
2022-12-09T15:21:25.708Z,3.60
2022-12-09T15:23:52.503Z,3.58
2022-12-09T15:26:23.620Z,3.57
2022-12-09T15:28:52.211Z,3.53
2022-12-09T15:31:26.561Z,3.51
2022-12-09T15:33:58.495Z,3.50
2022-12-09T15:36:32.826Z,3.51
2022-12-09T15:39:04.826Z,3.50
2022-12-09T15:41:59.539Z,3.48
2022-12-09T15:44:27.473Z,3.48
2022-12-09T15:46:55.800Z,3.45
2022-12-09T15:49:27.810Z,3.44
2022-12-09T15:51:56.304Z,3.43
2022-12-09T15:54:29.082Z,3.43
2022-12-09T15:56:59.009Z,3.42
2022-12-09T15:59:43.568Z,3.40
2022-12-09T16:02:15.197Z,3.38
2022-12-09T16:04:44.674Z,3.38
2022-12-09T16:07:13.658Z,3.37
2022-12-09T16:09:40.911Z,3.37
2022-12-09T16:12:27.427Z,3.36
2022-12-09T16:14:54.047Z,3.32
2022-12-09T16:17:27.583Z,3.30
2022-12-09T16:19:54.657Z,3.28
2022-12-09T16:22:30.033Z,3.27
2022-12-09T16:25:22.082Z,3.24
2022-12-09T16:27:55.858Z,3.18
2022-12-09T16:30:25.775Z,3.16
2022-12-09T16:32:54.452Z,3.13
2022-12-09T16:35:44.956Z,3.13
2022-12-09T16:38:11.755Z,3.10
2022-12-09T16:40:43.923Z,3.07
2022-12-09T16:43:16.784Z,3.06
2022-12-09T16:46:15.068Z,3.05
2022-12-09T16:48:42.620Z,3.02
2022-12-09T16:51:17.712Z,3.00
2022-12-09T16:53:47.120Z,2.94
2022-12-09T16:56:23.423Z,2.88
2022-12-09T16:58:49.883Z,2.84
2022-12-09T17:01:18.671Z,2.82
2022-12-09T17:03:52.610Z,2.80
2022-12-09T17:06:20.456Z,2.80
2022-12-09T17:08:47.769Z,2.81
2022-12-09T17:11:14.685Z,2.81
2022-12-09T17:13:41.191Z,2.78
2022-12-09T17:16:08.182Z,2.78
2022-12-09T17:18:35.073Z,2.76
2022-12-09T17:21:08.794Z,2.71
2022-12-09T17:23:39.912Z,2.69
2022-12-09T17:26:10.160Z,2.68
2022-12-09T17:28:38.054Z,2.63
2022-12-09T17:31:14.154Z,2.60
2022-12-09T17:33:41.088Z,2.59
2022-12-09T17:36:08.051Z,2.63
2022-12-09T17:38:34.622Z,2.61
2022-12-09T17:41:11.056Z,2.62
2022-12-09T17:43:37.585Z,2.61
2022-12-09T17:46:05.903Z,2.60
2022-12-09T17:48:33.781Z,2.59
2022-12-09T17:51:07.800Z,2.61
2022-12-09T17:53:41.604Z,2.61
2022-12-09T17:56:26.356Z,2.62
2022-12-09T17:59:02.835Z,2.63
2022-12-09T18:01:30.145Z,2.64
2022-12-09T18:04:02.591Z,2.65
2022-12-09T18:06:34.697Z,2.68
2022-12-09T18:09:05.966Z,2.71
2022-12-09T18:11:33.184Z,2.74
2022-12-09T18:14:00.081Z,2.76
2022-12-09T18:16:26.838Z,2.78
2022-12-09T18:18:53.654Z,2.79
2022-12-09T18:21:20.942Z,2.81
2022-12-09T18:23:48.407Z,2.81
2022-12-09T18:26:17.696Z,2.86
2022-12-09T18:28:44.223Z,2.85
2022-12-09T18:31:15.790Z,2.87
2022-12-09T18:33:43.157Z,2.86
2022-12-09T18:36:15.397Z,2.90
2022-12-09T18:38:42.712Z,2.88
2022-12-09T18:41:20.816Z,2.90
2022-12-09T18:43:48.877Z,2.93
2022-12-09T18:46:31.740Z,2.94
2022-12-09T18:49:23.576Z,2.96
2022-12-09T18:51:52.642Z,2.96
2022-12-09T18:54:26.403Z,2.97
2022-12-09T18:56:53.830Z,2.97
2022-12-09T18:59:23.357Z,2.96
2022-12-09T19:01:50.379Z,2.96
2022-12-09T19:04:25.815Z,2.97
2022-12-09T19:06:55.618Z,2.94
2022-12-09T19:09:28.616Z,2.93
2022-12-09T19:11:55.606Z,2.93
2022-12-09T19:14:23.227Z,2.90
2022-12-09T19:16:51.032Z,2.90
2022-12-09T19:19:21.389Z,2.90
2022-12-09T19:21:48.368Z,2.92
2022-12-09T19:24:21.009Z,2.89
2022-12-09T19:26:47.819Z,2.92
2022-12-09T19:29:15.455Z,2.90
2022-12-09T19:31:44.928Z,2.91
2022-12-09T19:34:20.713Z,2.83
2022-12-09T19:36:49.170Z,2.82
2022-12-09T19:39:17.337Z,2.84
2022-12-09T19:41:44.826Z,2.85
2022-12-09T19:44:21.565Z,2.84
2022-12-09T19:46:55.470Z,2.76
2022-12-09T19:49:23.291Z,2.79
2022-12-09T19:51:49.814Z,2.78
2022-12-09T19:54:17.595Z,2.84
2022-12-09T19:56:45.053Z,2.83
2022-12-09T19:59:12.564Z,2.83
2022-12-09T20:01:42.375Z,2.82
2022-12-09T20:04:46.868Z,2.85
2022-12-09T20:07:07.482Z,2.85
2022-12-09T20:09:35.115Z,2.85
2022-12-09T20:12:01.523Z,2.84
2022-12-09T20:14:28.011Z,2.81
2022-12-09T20:16:54.466Z,2.79
2022-12-09T20:19:20.960Z,2.78
2022-12-09T20:21:47.492Z,2.73
2022-12-09T20:24:13.952Z,2.69
2022-12-09T20:26:40.542Z,2.69
2022-12-09T20:29:10.039Z,2.68
2022-12-09T20:31:38.926Z,2.66
2022-12-09T20:34:09.314Z,2.61
2022-12-09T20:36:37.244Z,2.57
2022-12-09T20:39:12.369Z,2.54
2022-12-09T20:41:39.801Z,2.54
2022-12-09T20:44:06.373Z,2.49
2022-12-09T20:46:33.679Z,2.47
2022-12-09T20:49:00.817Z,2.46
2022-12-09T20:51:36.600Z,2.44
2022-12-09T20:54:05.246Z,2.39
2022-12-09T20:56:33.220Z,2.40
2022-12-09T20:59:00.368Z,2.41
2022-12-09T21:01:32.696Z,2.38
2022-12-09T21:04:00.912Z,2.37
2022-12-09T21:06:33.599Z,2.37
2022-12-09T21:09:01.979Z,2.37
2022-12-09T21:11:28.528Z,2.34
2022-12-09T21:14:01.445Z,2.34
2022-12-09T21:16:34.947Z,2.33
2022-12-09T21:19:05.720Z,2.32
2022-12-09T21:21:34.241Z,2.31
2022-12-09T21:24:01.283Z,2.29
2022-12-09T21:26:28.670Z,2.27
2022-12-09T21:28:56.007Z,2.35
2022-12-09T21:31:28.921Z,2.41
2022-12-09T21:33:56.895Z,2.42
2022-12-09T21:36:26.746Z,2.39
2022-12-09T21:38:54.219Z,2.37
2022-12-09T21:41:23.452Z,2.35
2022-12-09T21:43:50.695Z,2.37
2022-12-09T21:46:20.358Z,2.34
2022-12-09T21:48:51.977Z,2.33
2022-12-09T21:51:19.362Z,2.26
2022-12-09T21:53:46.282Z,2.25
2022-12-09T21:56:15.864Z,2.24
2022-12-09T21:58:44.104Z,2.21
2022-12-09T22:01:16.681Z,2.22
2022-12-09T22:03:43.539Z,2.20
2022-12-09T22:06:11.433Z,2.18
2022-12-09T22:08:39.064Z,2.18
2022-12-09T22:11:09.834Z,2.20
2022-12-09T22:13:39.488Z,2.20
2022-12-09T22:16:16.395Z,2.19
2022-12-09T22:18:43.296Z,2.19
2022-12-09T22:21:24.817Z,2.22
2022-12-09T22:23:56.837Z,2.22
2022-12-09T22:26:24.165Z,2.21
2022-12-09T22:28:51.534Z,2.20
2022-12-09T22:31:21.766Z,2.20
2022-12-09T22:33:50.288Z,2.21
2022-12-09T22:36:17.823Z,2.23
2022-12-09T22:38:44.804Z,2.22
2022-12-09T22:41:14.714Z,2.23
2022-12-09T22:43:43.055Z,2.21
2022-12-09T22:46:18.302Z,2.20
2022-12-09T22:48:45.032Z,2.20
2022-12-09T22:51:23.762Z,2.19
2022-12-09T22:53:52.289Z,2.19
2022-12-09T22:56:20.077Z,2.21
2022-12-09T22:58:47.017Z,2.17
2022-12-09T23:01:25.988Z,2.18
2022-12-09T23:03:54.050Z,2.17
2022-12-09T23:06:21.109Z,2.16
2022-12-09T23:08:47.747Z,2.14
2022-12-09T23:11:18.398Z,2.11
2022-12-09T23:13:45.195Z,2.09
2022-12-09T23:16:14.676Z,2.06
2022-12-09T23:18:41.669Z,2.05
2022-12-09T23:21:14.454Z,2.02
2022-12-09T23:23:41.103Z,2.00
2022-12-09T23:26:12.188Z,1.99
2022-12-09T23:28:45.538Z,1.99
2022-12-09T23:31:14.839Z,1.97
2022-12-09T23:33:43.387Z,1.96
2022-12-09T23:36:15.650Z,1.94
2022-12-09T23:38:43.283Z,1.94
2022-12-09T23:41:10.673Z,1.94
2022-12-09T23:43:38.440Z,1.92
2022-12-09T23:46:14.458Z,1.91
2022-12-09T23:48:42.501Z,1.86
2022-12-09T23:51:14.473Z,1.83
2022-12-09T23:53:42.213Z,1.78
2022-12-09T23:56:14.069Z,1.74
2022-12-09T23:58:41.465Z,1.71
